createdAt,value
2018-12-12T00:00:17.069Z,2.66
2018-12-12T00:01:17.056Z,2.64
2018-12-12T00:02:17.046Z,2.64
2018-12-12T00:03:17.035Z,2.63
2018-12-12T00:04:17.025Z,2.57
2018-12-12T00:05:17.015Z,2.59
2018-12-12T00:06:17.005Z,2.59
2018-12-12T00:07:16.995Z,2.57
2018-12-12T00:08:16.983Z,2.59
2018-12-12T00:09:16.976Z,2.60
2018-12-12T00:10:16.963Z,2.52
2018-12-12T00:11:16.951Z,2.56
2018-12-12T00:12:16.940Z,2.53
2018-12-12T00:13:16.931Z,2.54
2018-12-12T00:14:16.919Z,2.63
2018-12-12T00:15:16.912Z,2.66
2018-12-12T00:16:16.900Z,2.67
2018-12-12T00:17:16.888Z,2.63
2018-12-12T00:18:16.879Z,2.61
2018-12-12T00:19:16.882Z,2.61
2018-12-12T00:20:16.857Z,2.66
2018-12-12T00:21:16.846Z,2.69
2018-12-12T00:22:16.835Z,2.66
2018-12-12T00:23:16.825Z,2.66
2018-12-12T00:24:16.815Z,2.72
2018-12-12T00:25:16.803Z,2.67
2018-12-12T00:26:16.792Z,2.64
2018-12-12T00:27:16.784Z,2.78
2018-12-12T00:28:16.773Z,2.64
2018-12-12T00:29:16.760Z,2.72
2018-12-12T00:30:16.754Z,2.72
2018-12-12T00:31:16.740Z,2.78
2018-12-12T00:32:16.731Z,2.77
2018-12-12T00:33:16.718Z,2.72
2018-12-12T00:34:16.708Z,2.72
2018-12-12T00:35:16.698Z,2.72
2018-12-12T00:36:16.687Z,2.72
2018-12-12T00:37:16.676Z,2.75
2018-12-12T00:38:16.668Z,2.77
2018-12-12T00:39:16.717Z,2.69
2018-12-12T00:40:16.645Z,2.72
2018-12-12T00:41:16.636Z,2.74
2018-12-12T00:42:17.869Z,2.84
2018-12-12T00:43:16.672Z,2.78
2018-12-12T00:44:16.602Z,2.82
2018-12-12T00:45:16.592Z,2.77
2018-12-12T00:46:16.580Z,2.78
2018-12-12T00:47:16.570Z,2.81
2018-12-12T00:48:16.560Z,2.81
2018-12-12T00:49:16.548Z,2.78
2018-12-12T00:50:16.537Z,2.75
2018-12-12T00:51:16.528Z,2.67
2018-12-12T00:52:16.516Z,2.84
2018-12-12T00:53:16.506Z,2.89
2018-12-12T00:54:16.497Z,2.81
2018-12-12T00:55:16.484Z,2.90
2018-12-12T00:56:16.475Z,2.82
2018-12-12T00:57:16.467Z,2.85
2018-12-12T00:58:16.454Z,2.82
2018-12-12T00:59:16.444Z,2.78
2018-12-12T01:00:16.433Z,2.75
2018-12-12T01:01:16.420Z,2.78
2018-12-12T01:02:16.412Z,2.77
2018-12-12T01:03:16.404Z,2.84
2018-12-12T01:04:16.390Z,2.87
2018-12-12T01:05:16.379Z,2.84
2018-12-12T01:06:16.371Z,2.78
2018-12-12T01:07:16.357Z,2.82
2018-12-12T01:08:16.347Z,2.84
2018-12-12T01:09:16.337Z,2.84
2018-12-12T01:10:16.327Z,2.84
2018-12-12T01:11:16.316Z,2.85
2018-12-12T01:12:16.307Z,2.82
2018-12-12T01:13:16.294Z,2.90
2018-12-12T01:14:16.284Z,2.93
2018-12-12T01:15:16.273Z,2.82
2018-12-12T01:16:16.263Z,2.87
2018-12-12T01:17:16.257Z,2.89
2018-12-12T01:18:16.243Z,2.84
2018-12-12T01:19:16.232Z,2.89
2018-12-12T01:20:16.223Z,2.87
2018-12-12T01:21:16.211Z,2.85
2018-12-12T01:22:16.212Z,2.90
2018-12-12T01:23:16.191Z,2.85
2018-12-12T01:24:16.178Z,2.85
2018-12-12T01:25:16.170Z,2.84
2018-12-12T01:26:16.158Z,2.87
2018-12-12T01:27:16.148Z,2.90
2018-12-12T01:28:16.136Z,2.85
2018-12-12T01:29:16.125Z,2.84
2018-12-12T01:30:16.116Z,2.89
2018-12-12T01:31:16.106Z,2.92
2018-12-12T01:32:16.168Z,2.90
2018-12-12T01:33:16.087Z,2.95
2018-12-12T01:34:16.072Z,2.85
2018-12-12T01:35:16.062Z,2.82
2018-12-12T01:36:16.055Z,2.84
2018-12-12T01:37:16.040Z,2.85
2018-12-12T01:38:16.031Z,2.84
2018-12-12T01:39:16.020Z,2.92
2018-12-12T01:40:16.009Z,2.90
2018-12-12T01:41:16.000Z,2.87
2018-12-12T01:42:15.992Z,2.85
2018-12-12T01:43:15.977Z,2.85
2018-12-12T01:44:15.967Z,2.89
2018-12-12T01:45:15.958Z,2.85
2018-12-12T01:46:15.948Z,2.89
2018-12-12T01:47:15.935Z,2.85
2018-12-12T01:48:15.924Z,2.84
2018-12-12T01:49:15.970Z,2.89
2018-12-12T01:50:15.903Z,2.85
2018-12-12T01:51:15.895Z,2.87
2018-12-12T01:52:15.881Z,2.92
2018-12-12T01:53:15.872Z,2.89
2018-12-12T01:54:15.862Z,2.87
2018-12-12T01:55:15.851Z,2.85
2018-12-12T01:56:15.841Z,2.84
2018-12-12T01:57:15.829Z,2.84
2018-12-12T01:58:15.818Z,2.93
2018-12-12T01:59:15.808Z,2.87
2018-12-12T02:00:15.798Z,2.87
2018-12-12T02:01:15.788Z,2.82
2018-12-12T02:02:15.781Z,2.85
2018-12-12T02:03:15.768Z,2.92
2018-12-12T02:04:15.759Z,2.89
2018-12-12T02:05:15.750Z,2.89
2018-12-12T02:06:15.735Z,2.87
2018-12-12T02:07:15.724Z,2.87
2018-12-12T02:08:15.713Z,2.84
2018-12-12T02:09:15.703Z,2.84
2018-12-12T02:10:15.692Z,2.87
2018-12-12T02:11:15.681Z,2.87
2018-12-12T02:12:15.674Z,2.85
2018-12-12T02:13:15.662Z,2.93
2018-12-12T02:14:15.649Z,2.95
2018-12-12T02:15:15.640Z,2.90
2018-12-12T02:16:15.631Z,2.87
2018-12-12T02:17:15.618Z,2.97
2018-12-12T02:18:15.612Z,2.99
2018-12-12T02:19:15.600Z,2.92
2018-12-12T02:20:15.586Z,3.03
2018-12-12T02:21:15.578Z,2.92
2018-12-12T02:22:15.563Z,3.02
2018-12-12T02:23:15.553Z,2.96
2018-12-12T02:24:15.544Z,3.03
2018-12-12T02:25:15.534Z,2.97
2018-12-12T02:26:15.522Z,3.05
2018-12-12T02:27:15.513Z,3.10
2018-12-12T02:28:15.502Z,3.00
2018-12-12T02:29:15.490Z,3.00
2018-12-12T02:30:15.484Z,2.99
2018-12-12T02:31:15.471Z,3.08
2018-12-12T02:32:15.462Z,2.99
2018-12-12T02:33:15.451Z,3.00
2018-12-12T02:34:15.437Z,2.99
2018-12-12T02:35:15.428Z,3.00
2018-12-12T02:36:15.416Z,3.03
2018-12-12T02:37:15.406Z,2.95
2018-12-12T02:38:15.394Z,3.02
2018-12-12T02:39:15.384Z,3.05
2018-12-12T02:40:15.374Z,2.99
2018-12-12T02:41:15.365Z,2.97
2018-12-12T02:42:15.353Z,2.97
2018-12-12T02:43:15.341Z,2.95
2018-12-12T02:44:15.332Z,2.97
2018-12-12T02:45:15.321Z,3.06
2018-12-12T02:46:15.309Z,3.00
2018-12-12T02:47:15.301Z,3.03
2018-12-12T02:48:15.289Z,2.97
2018-12-12T02:49:15.285Z,3.10
2018-12-12T02:50:15.271Z,3.02
2018-12-12T02:51:15.257Z,3.00
2018-12-12T02:52:15.246Z,2.99
2018-12-12T02:53:15.238Z,3.06
2018-12-12T02:54:15.225Z,3.11
2018-12-12T02:55:15.215Z,3.06
2018-12-12T02:56:15.205Z,3.11
2018-12-12T02:57:15.195Z,3.02
2018-12-12T02:58:15.184Z,3.05
2018-12-12T02:59:15.176Z,3.11
2018-12-12T03:00:15.162Z,3.08
2018-12-12T03:01:15.150Z,3.03
2018-12-12T03:02:15.140Z,3.02
2018-12-12T03:03:15.133Z,3.00
2018-12-12T03:04:15.119Z,3.03
2018-12-12T03:05:15.112Z,3.08
2018-12-12T03:06:15.101Z,3.15
2018-12-12T03:07:15.087Z,3.03
2018-12-12T03:08:15.077Z,3.06
2018-12-12T03:09:15.082Z,3.06
2018-12-12T03:10:15.056Z,3.15
2018-12-12T03:11:15.045Z,3.08
2018-12-12T03:12:15.035Z,3.10
2018-12-12T03:13:15.024Z,3.13
2018-12-12T03:14:15.014Z,3.14
2018-12-12T03:15:15.005Z,3.18
2018-12-12T03:16:14.995Z,3.20
2018-12-12T03:17:14.983Z,3.20
2018-12-12T03:18:14.972Z,3.11
2018-12-12T03:19:14.960Z,3.18
2018-12-12T03:20:14.957Z,3.13
2018-12-12T03:21:14.939Z,3.15
2018-12-12T03:22:14.928Z,3.15
2018-12-12T03:23:14.916Z,3.14
2018-12-12T03:24:14.907Z,3.14
2018-12-12T03:25:14.901Z,3.17
2018-12-12T03:26:14.886Z,3.18
2018-12-12T03:27:14.874Z,3.17
2018-12-12T03:28:14.864Z,3.15
2018-12-12T03:29:14.853Z,3.14
2018-12-12T03:30:14.844Z,3.14
2018-12-12T03:31:14.833Z,3.14
2018-12-12T03:32:14.823Z,3.05
2018-12-12T03:33:14.810Z,3.14
2018-12-12T03:34:14.800Z,3.11
2018-12-12T03:35:14.789Z,3.10
2018-12-12T03:36:14.777Z,3.18
2018-12-12T03:37:14.768Z,3.21
2018-12-12T03:38:14.758Z,3.24
2018-12-12T03:39:14.765Z,3.24
2018-12-12T03:40:14.736Z,3.28
2018-12-12T03:41:14.727Z,3.24
2018-12-12T03:42:14.717Z,3.26
2018-12-12T03:43:14.705Z,3.24
2018-12-12T03:44:14.706Z,3.28
2018-12-12T03:45:14.687Z,3.21
2018-12-12T03:46:14.674Z,3.26
2018-12-12T03:47:14.662Z,3.31
2018-12-12T03:48:14.651Z,3.23
2018-12-12T03:49:14.641Z,3.26
2018-12-12T03:50:14.631Z,3.31
2018-12-12T03:51:14.620Z,3.24
2018-12-12T03:52:14.609Z,3.24
2018-12-12T03:53:14.602Z,3.28
2018-12-12T03:54:14.597Z,3.29
2018-12-12T03:55:14.577Z,3.29
2018-12-12T03:56:14.569Z,3.29
2018-12-12T03:57:14.558Z,3.31
2018-12-12T03:58:14.545Z,3.26
2018-12-12T03:59:14.535Z,3.28
2018-12-12T04:00:14.523Z,3.31
2018-12-12T04:01:14.514Z,3.35
2018-12-12T04:02:14.504Z,3.39
2018-12-12T04:03:14.495Z,3.39
2018-12-12T04:04:14.491Z,3.32
2018-12-12T04:05:14.470Z,3.32
2018-12-12T04:06:14.464Z,3.21
2018-12-12T04:07:14.453Z,3.39
2018-12-12T04:08:14.439Z,3.36
2018-12-12T04:09:14.428Z,3.36
2018-12-12T04:10:14.418Z,3.32
2018-12-12T04:11:14.409Z,3.32
2018-12-12T04:12:14.396Z,3.32
2018-12-12T04:13:14.389Z,3.35
2018-12-12T04:14:14.377Z,3.36
2018-12-12T04:15:14.367Z,3.36
2018-12-12T04:16:14.354Z,3.35
2018-12-12T04:17:14.343Z,3.36
2018-12-12T04:18:14.334Z,3.43
2018-12-12T04:19:14.325Z,3.42
2018-12-12T04:20:14.311Z,3.40
2018-12-12T04:21:14.309Z,3.39
2018-12-12T04:22:14.291Z,3.39
2018-12-12T04:23:14.283Z,3.35
2018-12-12T04:24:14.269Z,3.42
2018-12-12T04:25:14.258Z,3.42
2018-12-12T04:26:14.248Z,3.28
2018-12-12T04:27:14.242Z,3.36
2018-12-12T04:28:14.227Z,3.32
2018-12-12T04:29:14.217Z,3.35
2018-12-12T04:30:14.204Z,3.33
2018-12-12T04:31:14.197Z,3.43
2018-12-12T04:32:14.184Z,3.31
2018-12-12T04:33:14.174Z,3.21
2018-12-12T04:34:14.164Z,3.32
2018-12-12T04:35:14.155Z,3.36
2018-12-12T04:36:14.141Z,3.29
2018-12-12T04:37:14.130Z,3.32
2018-12-12T04:38:14.119Z,3.35
2018-12-12T04:39:14.109Z,3.31
2018-12-12T04:40:14.106Z,3.40
2018-12-12T04:41:14.088Z,3.33
2018-12-12T04:42:14.077Z,3.33
2018-12-12T04:43:14.068Z,3.29
2018-12-12T04:44:14.056Z,3.36
2018-12-12T04:45:14.050Z,3.33
2018-12-12T04:46:14.034Z,3.35
2018-12-12T04:47:14.026Z,3.24
2018-12-12T04:48:14.014Z,3.32
2018-12-12T04:49:14.005Z,3.28
2018-12-12T04:50:13.993Z,3.39
2018-12-12T04:51:13.982Z,3.28
2018-12-12T04:52:13.973Z,3.31
2018-12-12T04:53:13.961Z,3.29
2018-12-12T04:54:13.950Z,3.21
2018-12-12T04:55:13.954Z,3.24
2018-12-12T04:56:13.928Z,3.14
2018-12-12T04:57:13.918Z,3.11
2018-12-12T04:58:13.915Z,3.15
2018-12-12T04:59:13.897Z,3.06
2018-12-12T05:00:13.887Z,3.14
2018-12-12T05:01:13.877Z,3.14
2018-12-12T05:02:13.865Z,3.15
2018-12-12T05:03:13.856Z,3.18
2018-12-12T05:04:13.845Z,3.15
2018-12-12T05:05:13.833Z,3.11
2018-12-12T05:06:13.823Z,3.13
2018-12-12T05:07:13.830Z,3.05
2018-12-12T05:08:13.809Z,3.08
2018-12-12T05:09:13.791Z,3.08
2018-12-12T05:10:13.781Z,3.02
2018-12-12T05:11:13.770Z,2.90
2018-12-12T05:12:13.758Z,2.89
2018-12-12T05:13:13.750Z,2.89
2018-12-12T05:14:13.737Z,2.87
2018-12-12T05:15:13.726Z,2.89
2018-12-12T05:16:13.717Z,2.81
2018-12-12T05:17:13.705Z,2.81
2018-12-12T05:18:13.694Z,2.78
2018-12-12T05:19:13.684Z,2.74
2018-12-12T05:20:13.675Z,2.79
2018-12-12T05:21:13.664Z,2.72
2018-12-12T05:22:13.652Z,2.72
2018-12-12T05:23:13.640Z,2.64
2018-12-12T05:24:13.631Z,2.64
2018-12-12T05:25:13.621Z,2.61
2018-12-12T05:26:13.610Z,2.57
2018-12-12T05:27:13.603Z,2.56
2018-12-12T05:28:13.589Z,2.56
2018-12-12T05:29:13.577Z,2.59
2018-12-12T05:30:13.567Z,2.61
2018-12-12T05:31:13.557Z,2.66
2018-12-12T05:32:13.550Z,2.61
2018-12-12T05:33:13.918Z,2.64
2018-12-12T05:34:13.525Z,2.64
2018-12-12T05:35:13.515Z,2.64
2018-12-12T05:36:13.510Z,2.63
2018-12-12T05:37:13.494Z,2.61
2018-12-12T05:38:13.483Z,2.63
2018-12-12T05:39:13.472Z,2.52
2018-12-12T05:40:13.464Z,2.41
2018-12-12T05:41:13.453Z,2.46
2018-12-12T05:42:13.441Z,2.42
2018-12-12T05:43:13.432Z,2.38
2018-12-12T05:44:13.421Z,2.27
2018-12-12T05:45:13.410Z,2.35
2018-12-12T05:46:13.398Z,2.30
2018-12-12T05:47:13.393Z,2.23
2018-12-12T05:48:13.378Z,2.27
2018-12-12T05:49:13.368Z,2.28
2018-12-12T05:50:13.355Z,2.18
2018-12-12T05:51:13.348Z,2.16
2018-12-12T05:52:13.334Z,2.12
2018-12-12T05:53:13.329Z,2.12
2018-12-12T05:54:13.315Z,2.10
2018-12-12T05:55:13.314Z,2.06
2018-12-12T05:56:14.310Z,1.91
2018-12-12T05:57:13.285Z,1.93
2018-12-12T05:58:13.276Z,1.98
2018-12-12T05:59:13.266Z,1.90
2018-12-12T06:00:13.268Z,1.90
2018-12-12T06:01:13.251Z,1.86
2018-12-12T06:02:13.238Z,1.87
2018-12-12T06:03:13.222Z,1.87
2018-12-12T06:04:13.216Z,1.88
2018-12-12T06:05:13.207Z,1.80
2018-12-12T06:06:13.256Z,1.91
2018-12-12T06:07:13.177Z,1.73
2018-12-12T06:08:13.182Z,1.81
2018-12-12T06:09:13.168Z,1.87
2018-12-12T06:10:13.154Z,1.77
2018-12-12T06:11:13.139Z,1.77
2018-12-12T06:12:13.133Z,1.77
2018-12-12T06:13:13.124Z,1.79
2018-12-12T06:14:13.109Z,1.80
2018-12-12T06:15:13.099Z,1.80
2018-12-12T06:16:13.089Z,1.77
2018-12-12T06:17:13.072Z,1.83
2018-12-12T06:18:13.065Z,1.79
2018-12-12T06:19:13.050Z,1.80
2018-12-12T06:20:13.041Z,1.73
2018-12-12T06:21:13.028Z,1.65
2018-12-12T06:22:13.022Z,1.76
2018-12-12T06:23:13.012Z,1.65
2018-12-12T06:24:13.000Z,1.63
2018-12-12T06:25:12.990Z,1.69
2018-12-12T06:26:12.977Z,1.65
2018-12-12T06:27:12.970Z,1.62
2018-12-12T06:28:12.956Z,1.68
2018-12-12T06:29:12.946Z,1.69
2018-12-12T06:30:12.934Z,1.68
2018-12-12T06:31:12.923Z,1.69
2018-12-12T06:32:12.916Z,1.73
2018-12-12T06:33:12.902Z,1.73
2018-12-12T06:34:12.892Z,1.76
2018-12-12T06:35:12.881Z,1.84
2018-12-12T06:36:12.873Z,1.80
2018-12-12T06:37:12.864Z,1.80
2018-12-12T06:38:12.849Z,1.84
2018-12-12T06:39:12.839Z,1.65
2018-12-12T06:40:12.907Z,1.77
2018-12-12T06:41:12.819Z,1.65
2018-12-12T06:42:12.815Z,1.68
2018-12-12T06:43:12.797Z,1.68
2018-12-12T06:44:12.788Z,1.72
2018-12-12T06:45:12.775Z,1.66
2018-12-12T06:46:12.766Z,1.72
2018-12-12T06:47:12.756Z,1.69
2018-12-12T06:48:12.746Z,1.65
2018-12-12T06:49:12.734Z,1.68
2018-12-12T06:50:12.721Z,1.69
2018-12-12T06:51:12.712Z,1.68
2018-12-12T06:52:12.704Z,1.72
2018-12-12T06:53:12.697Z,1.68
2018-12-12T06:54:12.680Z,1.70
2018-12-12T06:55:12.673Z,1.68
2018-12-12T06:56:12.661Z,1.70
2018-12-12T06:57:12.649Z,1.69
2018-12-12T06:58:12.643Z,1.70
2018-12-12T06:59:12.631Z,1.69
2018-12-12T07:00:12.619Z,1.60
2018-12-12T07:01:12.605Z,1.69
2018-12-12T07:02:12.595Z,1.69
2018-12-12T07:03:12.587Z,1.63
2018-12-12T07:04:12.589Z,1.77
2018-12-12T07:05:12.566Z,1.79
2018-12-12T07:06:12.556Z,1.80
2018-12-12T07:07:12.544Z,1.66
2018-12-12T07:08:12.533Z,1.81
2018-12-12T07:09:12.523Z,1.80
2018-12-12T07:10:12.515Z,1.77
2018-12-12T07:11:12.506Z,1.88
2018-12-12T07:12:12.493Z,1.88
2018-12-12T07:13:12.490Z,1.90
2018-12-12T07:14:12.492Z,1.86
2018-12-12T07:15:12.462Z,1.88
2018-12-12T07:16:12.454Z,1.88
2018-12-12T07:17:12.437Z,1.86
2018-12-12T07:18:12.431Z,2.10
2018-12-12T07:19:12.416Z,2.00
2018-12-12T07:20:12.415Z,1.99
2018-12-12T07:21:12.398Z,1.95
2018-12-12T07:22:12.387Z,2.00
2018-12-12T07:23:12.374Z,2.00
2018-12-12T07:24:12.366Z,2.06
2018-12-12T07:25:12.355Z,2.02
2018-12-12T07:26:12.342Z,2.09
2018-12-12T07:27:12.333Z,2.03
2018-12-12T07:28:12.323Z,1.99
2018-12-12T07:29:12.311Z,2.09
2018-12-12T07:30:12.300Z,2.05
2018-12-12T07:31:12.293Z,2.02
2018-12-12T07:32:12.279Z,2.14
2018-12-12T07:33:12.268Z,2.05
2018-12-12T07:34:12.258Z,2.07
2018-12-12T07:35:12.248Z,2.16
2018-12-12T07:36:12.237Z,2.10
2018-12-12T07:37:12.226Z,2.09
2018-12-12T07:38:12.217Z,2.06
2018-12-12T07:39:17.750Z,2.16
2018-12-12T07:40:13.195Z,2.09
2018-12-12T07:41:12.202Z,2.10
2018-12-12T07:42:12.191Z,2.12
2018-12-12T07:43:12.164Z,2.16
2018-12-12T07:44:12.158Z,2.12
2018-12-12T07:45:12.143Z,2.05
2018-12-12T07:46:12.134Z,2.12
2018-12-12T07:47:12.127Z,2.17
2018-12-12T07:48:12.110Z,2.21
2018-12-12T07:49:12.100Z,2.24
2018-12-12T07:50:12.094Z,2.27
2018-12-12T07:51:12.079Z,2.27
2018-12-12T07:52:12.343Z,2.24
2018-12-12T07:53:12.059Z,2.24
2018-12-12T07:54:12.047Z,2.21
2018-12-12T07:55:12.038Z,2.21
2018-12-12T07:56:12.024Z,2.23
2018-12-12T07:57:12.015Z,2.24
2018-12-12T07:58:12.005Z,2.21
2018-12-12T07:59:11.996Z,2.17
2018-12-12T08:00:11.983Z,2.18
2018-12-12T08:01:11.971Z,2.35
2018-12-12T08:02:11.962Z,2.23
2018-12-12T08:03:11.961Z,2.17
2018-12-12T08:04:11.941Z,2.24
2018-12-12T08:05:11.931Z,2.24
2018-12-12T08:06:11.921Z,2.30
2018-12-12T08:07:11.910Z,2.34
2018-12-12T08:08:11.897Z,2.30
2018-12-12T08:09:11.889Z,2.30
2018-12-12T08:10:11.880Z,2.34
2018-12-12T08:11:11.868Z,2.25
2018-12-12T08:12:11.856Z,2.25
2018-12-12T08:13:11.846Z,2.28
2018-12-12T08:14:11.837Z,2.41
2018-12-12T08:15:11.824Z,2.36
2018-12-12T08:16:11.964Z,2.39
2018-12-12T08:17:11.808Z,2.36
2018-12-12T08:18:11.794Z,2.45
2018-12-12T08:19:11.787Z,2.42
2018-12-12T08:20:11.774Z,2.42
2018-12-12T08:21:11.763Z,2.38
2018-12-12T08:22:11.750Z,2.41
2018-12-12T08:23:11.741Z,2.48
2018-12-12T08:24:11.732Z,2.52
2018-12-12T08:25:11.721Z,2.46
2018-12-12T08:26:11.714Z,2.63
2018-12-12T08:27:11.699Z,2.63
2018-12-12T08:28:11.688Z,2.59
2018-12-12T08:29:11.737Z,2.59
2018-12-12T08:30:11.667Z,2.66
2018-12-12T08:31:11.655Z,2.61
2018-12-12T08:32:11.647Z,2.59
2018-12-12T08:33:11.641Z,2.64
2018-12-12T08:34:11.624Z,2.64
2018-12-12T08:35:11.612Z,2.71
2018-12-12T08:36:11.606Z,2.67
2018-12-12T08:37:11.594Z,2.63
2018-12-12T08:38:11.584Z,2.74
2018-12-12T08:39:11.571Z,2.69
2018-12-12T08:40:11.564Z,2.81
2018-12-12T08:41:11.551Z,2.82
2018-12-12T08:42:11.538Z,2.81
2018-12-12T08:43:11.529Z,2.78
2018-12-12T08:44:11.518Z,2.74
2018-12-12T08:45:11.508Z,2.79
2018-12-12T08:46:11.495Z,2.75
2018-12-12T08:47:11.487Z,2.87
2018-12-12T08:48:11.481Z,2.85
2018-12-12T08:49:11.464Z,2.89
2018-12-12T08:50:11.454Z,2.93
2018-12-12T08:51:11.446Z,2.93
2018-12-12T08:52:11.433Z,2.93
2018-12-12T08:53:11.422Z,3.03
2018-12-12T08:54:11.412Z,2.96
2018-12-12T08:55:17.435Z,3.05
2018-12-12T08:56:12.390Z,2.96
2018-12-12T08:57:11.379Z,3.10
2018-12-12T08:58:11.370Z,3.10
2018-12-12T08:59:11.360Z,2.99
2018-12-12T09:00:11.347Z,3.05
2018-12-12T09:01:11.338Z,3.18
2018-12-12T09:02:11.327Z,3.13
2018-12-12T09:03:17.400Z,3.21
2018-12-12T09:04:12.307Z,3.11
2018-12-12T09:05:11.303Z,3.15
2018-12-12T09:06:11.284Z,3.14
2018-12-12T09:07:11.273Z,3.15
2018-12-12T09:08:11.264Z,3.17
2018-12-12T09:09:11.252Z,3.18
2018-12-12T09:10:11.241Z,3.08
2018-12-12T09:11:11.231Z,3.13
2018-12-12T09:12:11.220Z,3.15
2018-12-12T09:13:11.210Z,3.13
2018-12-12T09:14:11.206Z,3.10
2018-12-12T09:15:11.191Z,3.14
2018-12-12T09:16:11.177Z,3.14
2018-12-12T09:17:11.196Z,3.13
2018-12-12T09:18:11.156Z,3.11
2018-12-12T09:19:11.144Z,3.14
2018-12-12T09:20:11.143Z,3.24
2018-12-12T09:21:11.125Z,3.26
2018-12-12T09:22:11.115Z,3.32
2018-12-12T09:23:11.104Z,3.36
2018-12-12T09:24:11.091Z,3.29
2018-12-12T09:25:11.082Z,3.35
2018-12-12T09:26:11.076Z,3.39
2018-12-12T09:27:11.063Z,3.47
2018-12-12T09:28:11.052Z,3.47
2018-12-12T09:29:11.038Z,3.57
2018-12-12T09:30:11.029Z,3.50
2018-12-12T09:31:11.016Z,3.57
2018-12-12T09:32:11.009Z,3.51
2018-12-12T09:33:10.996Z,3.65
2018-12-12T09:34:10.986Z,3.57
2018-12-12T09:35:10.975Z,3.68
2018-12-12T09:36:10.963Z,3.73
2018-12-12T09:37:10.954Z,3.73
2018-12-12T09:38:10.948Z,3.87
2018-12-12T09:39:10.933Z,3.94
2018-12-12T09:40:10.922Z,3.87
2018-12-12T09:41:10.911Z,3.93
2018-12-12T09:42:10.900Z,3.97
2018-12-12T09:43:10.895Z,4.18
2018-12-12T09:44:10.887Z,4.16
2018-12-12T09:45:10.870Z,4.27
2018-12-12T09:46:10.858Z,4.30
2018-12-12T09:47:10.847Z,4.32
2018-12-12T09:48:10.836Z,4.45
2018-12-12T09:49:10.828Z,4.42
2018-12-12T09:50:10.817Z,4.45
2018-12-12T09:51:10.806Z,4.48
2018-12-12T09:52:10.794Z,4.50
2018-12-12T09:53:10.795Z,4.59
2018-12-12T09:54:10.775Z,4.55
2018-12-12T09:55:10.767Z,4.48
2018-12-12T09:56:10.981Z,4.51
2018-12-12T09:57:10.741Z,4.54
2018-12-12T09:58:10.732Z,4.50
2018-12-12T09:59:10.727Z,4.48
2018-12-12T10:00:10.708Z,4.52
2018-12-12T10:01:10.703Z,4.41
2018-12-12T10:02:10.688Z,4.52
2018-12-12T10:03:10.681Z,4.52
2018-12-12T10:04:10.668Z,4.40
2018-12-12T10:05:10.655Z,4.41
2018-12-12T10:06:10.649Z,4.41
2018-12-12T10:07:10.638Z,4.41
2018-12-12T10:08:10.626Z,4.41
2018-12-12T10:09:10.615Z,4.44
2018-12-12T10:10:10.602Z,4.36
2018-12-12T10:11:10.593Z,4.37
2018-12-12T10:12:10.580Z,4.40
2018-12-12T10:13:10.570Z,4.30
2018-12-12T10:14:10.559Z,4.41
2018-12-12T10:15:10.549Z,4.32
2018-12-12T10:16:10.537Z,4.34
2018-12-12T10:17:10.528Z,4.33
2018-12-12T10:18:10.522Z,4.27
2018-12-12T10:19:10.514Z,4.22
2018-12-12T10:20:10.497Z,4.29
2018-12-12T10:21:10.484Z,4.24
2018-12-12T10:22:10.477Z,4.22
2018-12-12T10:23:10.463Z,4.14
2018-12-12T10:24:10.453Z,4.22
2018-12-12T10:25:10.441Z,4.16
2018-12-12T10:26:10.435Z,4.15
2018-12-12T10:27:10.421Z,4.14
2018-12-12T10:28:10.411Z,4.20
2018-12-12T10:29:10.401Z,4.18
2018-12-12T10:30:10.388Z,4.15
2018-12-12T10:31:10.381Z,4.08
2018-12-12T10:32:10.368Z,4.16
2018-12-12T10:33:10.356Z,4.09
2018-12-12T10:34:10.347Z,3.93
2018-12-12T10:35:10.337Z,4.09
2018-12-12T10:36:10.326Z,4.08
2018-12-12T10:37:10.322Z,4.11
2018-12-12T10:38:10.307Z,4.16
2018-12-12T10:39:10.293Z,4.16
2018-12-12T10:40:10.284Z,4.24
2018-12-12T10:41:10.272Z,4.37
2018-12-12T10:42:10.261Z,4.36
2018-12-12T10:43:10.252Z,4.33
2018-12-12T10:44:10.242Z,4.23
2018-12-12T10:45:10.231Z,4.18
2018-12-12T10:46:10.217Z,4.24
2018-12-12T10:47:10.226Z,4.27
2018-12-12T10:48:10.197Z,4.26
2018-12-12T10:49:10.187Z,4.41
2018-12-12T10:50:10.177Z,4.42
2018-12-12T10:51:10.165Z,4.34
2018-12-12T10:52:10.167Z,4.37
2018-12-12T10:53:10.144Z,4.51
2018-12-12T10:54:10.134Z,4.48
2018-12-12T10:55:10.123Z,4.60
2018-12-12T10:56:10.110Z,4.72
2018-12-12T10:57:10.103Z,4.77
2018-12-12T10:58:10.092Z,4.97
2018-12-12T10:59:10.103Z,5.12
2018-12-12T11:00:12.911Z,4.94
2018-12-12T11:01:10.059Z,4.88
2018-12-12T11:02:10.050Z,4.67
2018-12-12T11:03:10.037Z,4.69
2018-12-12T11:04:10.026Z,4.69
2018-12-12T11:05:10.017Z,4.59
2018-12-12T11:06:10.005Z,4.58
2018-12-12T11:07:09.995Z,4.55
2018-12-12T11:08:09.984Z,4.59
2018-12-12T11:09:09.975Z,4.52
2018-12-12T11:10:09.963Z,4.58
2018-12-12T11:11:09.953Z,4.54
2018-12-12T11:12:09.945Z,4.70
2018-12-12T11:13:09.934Z,4.58
2018-12-12T11:14:09.921Z,4.51
2018-12-12T11:15:09.909Z,4.65
2018-12-12T11:16:09.902Z,4.55
2018-12-12T11:17:09.889Z,4.67
2018-12-12T11:18:09.880Z,4.70
2018-12-12T11:19:09.867Z,4.67
2018-12-12T11:20:09.856Z,4.55
2018-12-12T11:21:09.845Z,4.60
2018-12-12T11:22:09.834Z,4.51
2018-12-12T11:23:09.825Z,4.51
2018-12-12T11:24:09.817Z,4.47
2018-12-12T11:25:09.802Z,4.44
2018-12-12T11:26:09.795Z,4.48
2018-12-12T11:27:09.782Z,4.47
2018-12-12T11:28:09.772Z,4.45
2018-12-12T11:29:09.762Z,4.51
2018-12-12T11:30:09.756Z,4.69
2018-12-12T11:31:09.741Z,5.02
2018-12-12T11:32:09.730Z,5.45
2018-12-12T11:33:09.723Z,5.85
2018-12-12T11:34:09.706Z,6.74
2018-12-12T11:35:09.695Z,7.31
2018-12-12T11:36:09.686Z,8.00
2018-12-12T11:37:09.674Z,8.95
2018-12-12T11:38:09.666Z,9.79
2018-12-12T11:39:09.654Z,10.44
2018-12-12T11:40:09.645Z,10.89
2018-12-12T11:41:09.636Z,11.25
2018-12-12T11:42:09.625Z,10.71
2018-12-12T11:43:09.612Z,10.70
2018-12-12T11:44:09.601Z,10.64
2018-12-12T11:45:09.592Z,10.56
2018-12-12T11:46:09.578Z,10.67
2018-12-12T11:47:09.566Z,10.15
2018-12-12T11:48:09.555Z,10.11
2018-12-12T11:49:09.546Z,10.12
2018-12-12T11:50:09.536Z,10.32
2018-12-12T11:51:09.524Z,10.04
2018-12-12T11:52:09.516Z,9.21
2018-12-12T11:53:09.504Z,8.87
2018-12-12T11:54:09.493Z,8.52
2018-12-12T11:55:09.480Z,8.19
2018-12-12T11:56:09.470Z,8.30
2018-12-12T11:57:09.459Z,7.77
2018-12-12T11:58:09.448Z,7.69
2018-12-12T11:59:09.438Z,7.34
2018-12-12T12:00:09.431Z,7.49
2018-12-12T12:01:09.416Z,7.63
2018-12-12T12:02:09.405Z,7.27
2018-12-12T12:03:09.395Z,7.71
2018-12-12T12:04:09.383Z,8.61
2018-12-12T12:05:09.371Z,7.57
2018-12-12T12:06:09.360Z,7.87
2018-12-12T12:07:09.349Z,8.70
2018-12-12T12:08:09.338Z,9.50
2018-12-12T12:09:09.330Z,9.39
2018-12-12T12:10:09.320Z,9.48
2018-12-12T12:11:09.309Z,9.93
2018-12-12T12:12:09.301Z,10.09
2018-12-12T12:13:09.284Z,10.44
2018-12-12T12:14:09.275Z,10.53
2018-12-12T12:15:09.263Z,11.25
2018-12-12T12:16:09.252Z,10.42
2018-12-12T12:17:09.241Z,9.61
2018-12-12T12:18:09.231Z,9.79
2018-12-12T12:19:09.229Z,9.39
2018-12-12T12:20:09.213Z,9.58
2018-12-12T12:21:09.200Z,9.38
2018-12-12T12:22:09.257Z,8.98
2018-12-12T12:23:09.177Z,8.44
2018-12-12T12:24:09.166Z,7.67
2018-12-12T12:25:09.154Z,7.05
2018-12-12T12:26:09.144Z,6.66
2018-12-12T12:27:09.134Z,6.30
2018-12-12T12:28:09.123Z,5.90
2018-12-12T12:29:09.112Z,5.58
2018-12-12T12:30:09.100Z,5.35
2018-12-12T12:31:09.090Z,5.15
2018-12-12T12:32:09.084Z,5.02
2018-12-12T12:33:09.071Z,5.02
2018-12-12T12:34:09.062Z,4.97
2018-12-12T12:35:09.049Z,4.99
2018-12-12T12:36:09.040Z,4.97
2018-12-12T12:37:09.026Z,4.86
2018-12-12T12:38:09.015Z,4.78
2018-12-12T12:39:09.005Z,4.70
2018-12-12T12:40:08.994Z,4.72
2018-12-12T12:41:08.984Z,4.73
2018-12-12T12:42:08.976Z,4.72
2018-12-12T12:43:08.987Z,4.73
2018-12-12T12:44:08.950Z,4.67
2018-12-12T12:45:08.939Z,4.72
2018-12-12T12:46:08.931Z,4.72
2018-12-12T12:47:08.921Z,4.80
2018-12-12T12:48:08.907Z,4.75
2018-12-12T12:49:08.897Z,4.70
2018-12-12T12:50:08.886Z,4.88
2018-12-12T12:51:08.878Z,4.80
2018-12-12T12:52:08.866Z,4.85
2018-12-12T12:53:08.855Z,4.91
2018-12-12T12:54:08.843Z,4.96
2018-12-12T12:55:08.833Z,4.97
2018-12-12T12:56:08.823Z,5.03
2018-12-12T12:57:08.812Z,4.96
2018-12-12T12:58:08.801Z,5.06
2018-12-12T12:59:08.792Z,5.09
2018-12-12T13:00:08.782Z,5.18
2018-12-12T13:01:08.768Z,5.10
2018-12-12T13:02:08.761Z,5.09
2018-12-12T13:03:08.747Z,5.06
2018-12-12T13:04:09.781Z,5.07
2018-12-12T13:05:08.729Z,5.06
2018-12-12T13:06:08.717Z,4.92
2018-12-12T13:07:08.705Z,5.03
2018-12-12T13:08:08.699Z,5.18
2018-12-12T13:09:08.682Z,5.25
2018-12-12T13:10:11.528Z,5.43
2018-12-12T13:11:14.706Z,5.51
2018-12-12T13:12:09.803Z,5.43
2018-12-12T13:13:08.702Z,5.40
2018-12-12T13:14:08.696Z,5.49
2018-12-12T13:15:08.617Z,5.53
2018-12-12T13:16:08.611Z,5.43
2018-12-12T13:17:08.597Z,5.22